Time;durP1;ratioP1;P1;durP2;ratioP2;P2;SDS_P1;SDS_P2;PMS_P1;PMS_P2;Temp;Humidity;BMP_temperature;BMP_pressure;BME280_temperature;BME280_humidity;BME280_pressure;Samples;Min_cycle;Max_cycle;Signal;HPM_P1;HPM_P2
2021/10/31 00:00:33;;;;;;;9.00;5.55;;;13.10;99.90;;;;;;5035128;28;20172;-81
2021/10/31 00:02:59;;;;;;;6.63;6.03;;;13.00;99.90;;;;;;5034473;28;20179;-78
2021/10/31 00:05:25;;;;;;;8.02;6.28;;;13.10;99.90;;;;;;5035445;28;20264;-79
2021/10/31 00:07:51;;;;;;;6.00;5.50;;;13.00;99.90;;;;;;5035642;28;20164;-78
2021/10/31 00:10:19;;;;;;;6.22;5.72;;;12.90;99.90;;;;;;5035512;28;20189;-77
2021/10/31 00:12:45;;;;;;;8.65;4.93;;;12.90;99.90;;;;;;5036278;28;20164;-78
2021/10/31 00:15:11;;;;;;;7.15;5.53;;;12.90;99.90;;;;;;5036033;28;20243;-77
2021/10/31 00:17:36;;;;;;;7.28;5.45;;;12.80;99.90;;;;;;5036107;28;20529;-79
2021/10/31 00:20:05;;;;;;;6.30;5.70;;;12.90;99.90;;;;;;5035875;28;20191;-79
2021/10/31 00:22:30;;;;;;;6.93;5.30;;;12.90;99.90;;;;;;5034316;28;20523;-79
2021/10/31 00:24:56;;;;;;;7.55;5.05;;;12.80;99.90;;;;;;5035222;28;20206;-80
2021/10/31 00:27:21;;;;;;;11.25;5.68;;;12.80;99.90;;;;;;5035431;28;20242;-80
2021/10/31 00:29:47;;;;;;;6.45;5.47;;;12.90;99.90;;;;;;5035317;28;20546;-77
2021/10/31 00:32:13;;;;;;;7.50;5.18;;;12.90;99.90;;;;;;5035177;28;20184;-78
2021/10/31 00:34:38;;;;;;;6.05;5.45;;;12.80;99.90;;;;;;5036010;28;20183;-79
2021/10/31 00:37:04;;;;;;;6.32;5.70;;;12.80;99.90;;;;;;5035144;28;20168;-78
2021/10/31 00:39:30;;;;;;;7.97;5.15;;;12.80;99.90;;;;;;5035048;28;20198;-79
2021/10/31 00:41:56;;;;;;;9.23;5.93;;;12.80;99.90;;;;;;5035224;28;20176;-79
2021/10/31 00:44:21;;;;;;;6.35;5.32;;;12.60;99.90;;;;;;5033531;28;20237;-80
2021/10/31 00:46:47;;;;;;;7.75;4.65;;;12.60;99.90;;;;;;5034879;28;20290;-78
2021/10/31 00:49:14;;;;;;;11.13;5.38;;;12.40;99.90;;;;;;5034489;28;20191;-78
2021/10/31 00:51:40;;;;;;;11.80;5.32;;;12.40;99.90;;;;;;5034262;28;20172;-78
2021/10/31 00:54:06;;;;;;;9.95;5.75;;;12.50;99.90;;;;;;5034927;28;20164;-79
2021/10/31 00:56:33;;;;;;;12.32;5.45;;;12.60;99.90;;;;;;5035421;28;20172;-80
2021/10/31 00:58:59;;;;;;;7.20;5.22;;;12.60;99.90;;;;;;5034292;28;20218;-80
2021/10/31 01:01:27;;;;;;;14.00;5.88;;;12.70;99.90;;;;;;5035085;28;20168;-78
2021/10/31 01:03:54;;;;;;;13.15;5.25;;;12.70;99.90;;;;;;5034764;28;20170;-81
2021/10/31 01:06:39;;;;;;;10.93;5.13;;;12.70;99.90;;;;;;5034681;28;20218;-79
2021/10/31 01:09:35;;;;;;;9.77;6.47;;;12.80;99.90;;;;;;5034708;28;20231;-81
2021/10/31 01:12:19;;;;;;;9.02;5.63;;;13.00;99.90;;;;;;5034787;28;20164;-79
2021/10/31 01:14:52;;;;;;;6.68;4.82;;;12.90;99.90;;;;;;5034810;28;20179;-80
2021/10/31 01:17:27;;;;;;;12.32;5.55;;;12.90;99.90;;;;;;5034384;28;20195;-76
2021/10/31 01:20:33;;;;;;;12.60;6.40;;;12.80;99.90;;;;;;5034135;28;20191;-80
2021/10/31 01:23:05;;;;;;;12.07;5.05;;;12.80;99.90;;;;;;5034480;28;20166;-78
2021/10/31 01:25:49;;;;;;;11.98;5.47;;;12.70;99.90;;;;;;5034642;28;20299;-79
2021/10/31 01:28:35;;;;;;;8.77;5.13;;;12.60;99.90;;;;;;5034156;28;20176;-80
2021/10/31 01:31:36;;;;;;;6.43;5.82;;;12.70;99.90;;;;;;5033999;28;20182;-79
2021/10/31 01:34:19;;;;;;;11.77;5.65;;;12.60;99.90;;;;;;5034559;28;20198;-80
2021/10/31 01:37:13;;;;;;;7.03;5.90;;;12.40;99.90;;;;;;5034045;28;20163;-78
2021/10/31 01:40:07;;;;;;;5.75;5.22;;;12.40;99.90;;;;;;5034089;28;20194;-78
2021/10/31 01:43:23;;;;;;;15.10;5.28;;;12.40;99.90;;;;;;5033911;28;20167;-78
2021/10/31 01:45:52;;;;;;;8.50;4.85;;;12.30;99.90;;;;;;5007985;28;20255;-83
2021/10/31 01:48:39;;;;;;;5.70;4.90;;;12.30;99.90;;;;;;5033859;28;20186;-79
2021/10/31 01:51:13;;;;;;;12.27;5.78;;;12.30;99.90;;;;;;5034114;28;20167;-79
2021/10/31 01:53:49;;;;;;;8.80;5.85;;;12.40;99.90;;;;;;5032687;28;20267;-83
2021/10/31 01:56:19;;;;;;;7.38;5.93;;;12.60;99.90;;;;;;5033922;28;20167;-78
2021/10/31 01:58:56;;;;;;;6.38;5.70;;;12.50;99.90;;;;;;5033215;28;20386;-78
2021/10/31 02:01:24;;;;;;;10.85;5.68;;;12.50;99.90;;;;;;5032998;28;20183;-78
2021/10/31 02:03:52;;;;;;;9.05;5.50;;;12.50;99.90;;;;;;5033245;28;20591;-78
2021/10/31 02:06:20;;;;;;;10.52;5.75;;;12.50;99.90;;;;;;5033820;28;20213;-83
2021/10/31 02:08:48;;;;;;;6.57;6.07;;;12.60;99.90;;;;;;5033823;28;20179;-82
2021/10/31 02:11:16;;;;;;;8.95;5.78;;;12.60;99.90;;;;;;5033619;28;20170;-83
2021/10/31 02:13:44;;;;;;;7.85;5.65;;;12.50;99.90;;;;;;5033719;28;20175;-78
2021/10/31 02:16:12;;;;;;;9.57;5.85;;;12.50;99.90;;;;;;5034017;28;20179;-79
2021/10/31 02:18:39;;;;;;;9.77;6.15;;;12.40;99.90;;;;;;5033277;28;20183;-82
2021/10/31 02:21:06;;;;;;;11.00;6.05;;;12.50;99.90;;;;;;5033300;28;20171;-81
2021/10/31 02:23:32;;;;;;;12.13;6.18;;;12.50;99.90;;;;;;5033320;28;20198;-84
2021/10/31 02:25:58;;;;;;;7.13;6.40;;;12.40;99.90;;;;;;5032950;28;20204;-81
2021/10/31 02:28:24;;;;;;;7.50;6.75;;;12.40;99.90;;;;;;5033870;28;20180;-82
2021/10/31 02:30:50;;;;;;;7.70;6.57;;;12.30;99.90;;;;;;5033262;28;20175;-82
2021/10/31 02:33:16;;;;;;;9.13;5.75;;;12.30;99.90;;;;;;5033316;28;20231;-78
2021/10/31 02:35:43;;;;;;;7.38;6.57;;;12.40;99.90;;;;;;5034002;28;20234;-80
2021/10/31 02:38:09;;;;;;;7.50;6.75;;;12.20;99.90;;;;;;5033227;28;20160;-81
2021/10/31 02:40:37;;;;;;;9.45;7.05;;;12.30;99.90;;;;;;5033196;28;20254;-79
2021/10/31 02:43:06;;;;;;;8.93;6.47;;;12.30;99.90;;;;;;5033171;28;20214;-83
2021/10/31 02:45:32;;;;;;;10.18;6.07;;;12.50;99.90;;;;;;5032823;28;20215;-78
2021/10/31 02:48:01;;;;;;;8.63;6.53;;;12.50;99.90;;;;;;5032822;28;20226;-79
2021/10/31 02:50:34;;;;;;;7.40;6.68;;;12.50;99.90;;;;;;5032915;28;20188;-79
2021/10/31 02:53:06;;;;;;;7.85;6.25;;;12.50;99.90;;;;;;5033037;28;20164;-78
2021/10/31 02:56:04;;;;;;;8.77;7.00;;;12.40;99.90;;;;;;5033532;28;20210;-82
2021/10/31 02:58:35;;;;;;;14.07;6.63;;;12.50;99.90;;;;;;4980266;28;20207;-80
2021/10/31 03:01:04;;;;;;;7.75;6.95;;;12.40;99.90;;;;;;5032896;28;20172;-78
2021/10/31 03:03:31;;;;;;;6.75;6.07;;;12.60;99.90;;;;;;5032976;28;20172;-79
2021/10/31 03:05:57;;;;;;;9.18;8.27;;;12.50;99.90;;;;;;5032395;28;20208;-78
2021/10/31 03:08:25;;;;;;;8.57;7.47;;;12.60;99.90;;;;;;5032467;28;20508;-79
2021/10/31 03:10:53;;;;;;;10.45;7.13;;;12.60;99.90;;;;;;5032722;28;20160;-80
2021/10/31 03:13:20;;;;;;;9.32;6.95;;;12.60;99.90;;;;;;5032379;28;20171;-78
2021/10/31 03:15:45;;;;;;;8.65;7.60;;;12.60;99.90;;;;;;5032356;28;20176;-79
2021/10/31 03:18:11;;;;;;;8.45;6.80;;;12.60;99.90;;;;;;5032845;28;20247;-78
2021/10/31 03:20:36;;;;;;;12.18;6.78;;;12.30;99.90;;;;;;5032950;28;20651;-79
2021/10/31 03:23:03;;;;;;;10.68;6.40;;;12.40;99.90;;;;;;5033202;28;20259;-78
2021/10/31 03:25:28;;;;;;;9.63;7.40;;;12.50;99.90;;;;;;5032781;28;20732;-78
2021/10/31 03:27:54;;;;;;;6.93;6.03;;;12.40;99.90;;;;;;5032896;28;20172;-78
2021/10/31 03:30:20;;;;;;;8.85;6.60;;;12.60;99.90;;;;;;5032781;28;20266;-78
2021/10/31 03:32:46;;;;;;;7.18;6.47;;;12.70;99.90;;;;;;5034893;28;20184;-79
2021/10/31 03:35:12;;;;;;;7.05;6.35;;;12.60;99.90;;;;;;5035814;28;20648;-78
2021/10/31 03:37:39;;;;;;;9.00;6.40;;;12.60;99.90;;;;;;5035991;28;20164;-78
2021/10/31 03:40:05;;;;;;;8.65;7.05;;;12.70;99.90;;;;;;5037800;28;20206;-78
2021/10/31 03:42:31;;;;;;;7.78;6.97;;;12.50;99.90;;;;;;5039154;28;20203;-79
2021/10/31 03:44:57;;;;;;;8.57;7.78;;;12.50;99.90;;;;;;5037436;28;20206;-79
2021/10/31 03:47:25;;;;;;;14.38;7.45;;;12.30;99.90;;;;;;5032251;28;20534;-78
2021/10/31 03:49:51;;;;;;;8.20;7.43;;;12.30;99.90;;;;;;5031893;28;20198;-78
2021/10/31 03:52:17;;;;;;;9.60;7.60;;;12.40;99.90;;;;;;5031769;28;20172;-78
2021/10/31 03:54:43;;;;;;;8.20;7.43;;;12.40;99.90;;;;;;5032374;28;20218;-78
2021/10/31 03:57:09;;;;;;;10.50;7.13;;;12.40;99.90;;;;;;5032109;28;20629;-78
2021/10/31 03:59:35;;;;;;;10.88;8.98;;;12.40;99.90;;;;;;5031885;28;20187;-78
2021/10/31 04:02:02;;;;;;;8.65;7.70;;;12.40;99.90;;;;;;5031792;28;20230;-78
2021/10/31 04:04:28;;;;;;;10.85;7.72;;;12.30;99.90;;;;;;5031708;28;20595;-78
2021/10/31 04:06:53;;;;;;;10.70;7.53;;;12.40;99.90;;;;;;5031904;28;20607;-78
2021/10/31 04:09:19;;;;;;;11.43;8.30;;;12.30;99.90;;;;;;5032028;28;20188;-78
2021/10/31 04:11:44;;;;;;;9.80;8.13;;;12.50;99.90;;;;;;5031899;28;20164;-78
2021/10/31 04:14:10;;;;;;;9.32;8.43;;;12.40;99.90;;;;;;5031973;28;20522;-78
2021/10/31 04:16:36;;;;;;;14.73;8.63;;;12.30;99.90;;;;;;5031778;28;20179;-77
2021/10/31 04:19:01;;;;;;;9.68;8.60;;;12.20;99.90;;;;;;5031556;28;20210;-78
2021/10/31 04:21:27;;;;;;;10.63;8.52;;;12.20;99.90;;;;;;5031754;28;20566;-79
2021/10/31 04:23:52;;;;;;;11.38;8.98;;;12.30;99.90;;;;;;5032278;28;20179;-77
2021/10/31 04:26:18;;;;;;;10.45;8.85;;;12.30;99.90;;;;;;5034255;28;20242;-79
2021/10/31 04:28:43;;;;;;;13.30;9.55;;;12.30;99.90;;;;;;5035613;28;20682;-79
2021/10/31 04:31:09;;;;;;;14.50;9.90;;;12.40;99.90;;;;;;5035910;28;20172;-79
2021/10/31 04:33:36;;;;;;;10.73;7.63;;;12.50;99.90;;;;;;5035352;28;20566;-78
2021/10/31 04:36:02;;;;;;;10.52;7.55;;;12.60;99.90;;;;;;5035120;28;20179;-78
2021/10/31 04:38:30;;;;;;;10.50;8.93;;;12.40;99.90;;;;;;5035115;28;20188;-78
2021/10/31 04:40:57;;;;;;;11.38;8.10;;;12.50;99.90;;;;;;5035246;28;20179;-78
2021/10/31 04:43:24;;;;;;;14.90;9.48;;;12.50;99.90;;;;;;5035113;28;20172;-78
2021/10/31 04:45:50;;;;;;;10.38;8.30;;;12.40;99.90;;;;;;5034546;28;20226;-77
2021/10/31 04:48:15;;;;;;;8.75;7.68;;;12.40;99.90;;;;;;5034664;28;20160;-77
2021/10/31 04:50:41;;;;;;;12.40;8.95;;;12.40;99.90;;;;;;5034857;28;20167;-81
2021/10/31 04:53:08;;;;;;;11.73;8.27;;;12.40;99.90;;;;;;5035086;28;20525;-77
2021/10/31 04:55:39;;;;;;;10.55;8.30;;;12.40;99.90;;;;;;5035009;28;20160;-78
2021/10/31 04:58:05;;;;;;;13.95;8.45;;;12.40;99.90;;;;;;5034784;28;20163;-78
2021/10/31 05:00:31;;;;;;;11.05;8.13;;;12.50;99.90;;;;;;5034536;28;20575;-78
2021/10/31 05:02:57;;;;;;;15.80;8.43;;;12.40;99.90;;;;;;5034136;28;20173;-78
2021/10/31 05:05:23;;;;;;;12.27;8.52;;;12.40;99.90;;;;;;5035097;28;20243;-77
2021/10/31 05:07:49;;;;;;;8.45;7.55;;;12.50;99.90;;;;;;5034296;28;20621;-77
2021/10/31 05:10:16;;;;;;;10.98;8.13;;;12.40;99.90;;;;;;5034838;28;20187;-77
2021/10/31 05:12:42;;;;;;;10.55;8.18;;;12.30;99.90;;;;;;5034411;28;20176;-77
2021/10/31 05:15:08;;;;;;;9.52;7.65;;;12.30;99.90;;;;;;5034731;28;20218;-77
2021/10/31 05:17:34;;;;;;;10.68;7.45;;;12.30;99.90;;;;;;5034654;28;20794;-77
2021/10/31 05:20:01;;;;;;;8.77;7.32;;;12.20;99.90;;;;;;5034754;28;20176;-76
2021/10/31 05:22:26;;;;;;;8.32;7.13;;;12.10;99.90;;;;;;5034450;28;20171;-77
2021/10/31 05:24:52;;;;;;;8.60;7.20;;;12.30;99.90;;;;;;5034660;28;20168;-78
2021/10/31 05:27:18;;;;;;;14.18;7.43;;;12.30;99.90;;;;;;5034548;28;20176;-78
2021/10/31 05:29:43;;;;;;;9.75;7.40;;;12.40;99.90;;;;;;5032742;28;20726;-78
2021/10/31 05:32:09;;;;;;;8.30;7.10;;;12.50;99.90;;;;;;5034556;28;20188;-77
2021/10/31 05:34:35;;;;;;;10.68;6.93;;;12.40;99.90;;;;;;5034045;28;20526;-79
2021/10/31 05:37:01;;;;;;;7.50;6.75;;;12.50;99.90;;;;;;5034481;28;20203;-78
2021/10/31 05:39:26;;;;;;;9.73;6.80;;;12.40;99.90;;;;;;5034587;28;20660;-77
2021/10/31 05:41:52;;;;;;;8.73;6.57;;;12.50;99.90;;;;;;5034585;28;20202;-77
2021/10/31 05:44:17;;;;;;;8.50;7.47;;;12.40;99.90;;;;;;5034104;28;20576;-78
2021/10/31 05:46:43;;;;;;;8.40;6.90;;;12.50;99.90;;;;;;5033845;28;20214;-77
2021/10/31 05:49:09;;;;;;;8.73;6.78;;;12.30;99.90;;;;;;5033771;28;20187;-77
2021/10/31 05:51:35;;;;;;;9.32;6.45;;;12.30;99.90;;;;;;5034190;28;20179;-78
2021/10/31 05:54:01;;;;;;;7.85;7.05;;;12.30;99.90;;;;;;5034008;28;20164;-78
2021/10/31 05:56:27;;;;;;;14.45;7.45;;;12.20;99.90;;;;;;5033770;28;20714;-77
2021/10/31 05:58:53;;;;;;;9.15;6.93;;;12.10;99.90;;;;;;5033596;28;20223;-79
2021/10/31 06:01:18;;;;;;;11.70;7.35;;;12.10;99.90;;;;;;5033286;28;20175;-77
2021/10/31 06:03:44;;;;;;;9.05;6.63;;;12.20;99.90;;;;;;5033736;28;20198;-77
2021/10/31 06:06:09;;;;;;;9.93;7.70;;;12.10;99.90;;;;;;5033738;28;20211;-78
2021/10/31 06:08:36;;;;;;;12.88;8.00;;;12.10;99.90;;;;;;5033487;28;20184;-78
2021/10/31 06:11:02;;;;;;;13.20;6.38;;;12.10;99.90;;;;;;5033531;28;20242;-77
2021/10/31 06:13:28;;;;;;;11.23;6.63;;;12.00;99.90;;;;;;5033535;28;20628;-77
2021/10/31 06:15:53;;;;;;;8.70;6.60;;;12.00;99.90;;;;;;5032720;28;20275;-77
2021/10/31 06:18:20;;;;;;;11.77;7.60;;;12.10;99.90;;;;;;5033110;28;20218;-77
2021/10/31 06:20:46;;;;;;;7.53;6.28;;;12.20;99.90;;;;;;5033238;28;20159;-77
2021/10/31 06:23:14;;;;;;;8.57;7.00;;;12.20;99.90;;;;;;5033216;28;20179;-77
2021/10/31 06:25:40;;;;;;;9.43;6.72;;;12.30;99.90;;;;;;5032993;28;20241;-77
2021/10/31 06:28:06;;;;;;;8.32;6.60;;;12.20;99.90;;;;;;5033026;28;20167;-77
2021/10/31 06:30:32;;;;;;;7.53;6.28;;;12.30;99.90;;;;;;5032779;28;20679;-77
2021/10/31 06:32:57;;;;;;;7.32;6.35;;;12.30;99.90;;;;;;5033202;28;20196;-77
2021/10/31 06:35:23;;;;;;;9.90;6.90;;;12.20;99.90;;;;;;5032603;28;20298;-77
2021/10/31 06:37:49;;;;;;;13.43;7.13;;;12.20;99.90;;;;;;5032765;28;20512;-77
2021/10/31 06:40:16;;;;;;;8.13;6.32;;;12.20;99.90;;;;;;5032685;28;20270;-77
2021/10/31 06:42:42;;;;;;;10.93;6.65;;;12.20;99.90;;;;;;5032769;28;20167;-78
2021/10/31 06:45:08;;;;;;;9.30;5.63;;;12.10;99.90;;;;;;5032547;28;20203;-78
2021/10/31 06:47:34;;;;;;;6.63;5.85;;;12.10;99.90;;;;;;5031993;28;20545;-78
2021/10/31 06:50:00;;;;;;;8.57;4.90;;;12.00;99.90;;;;;;5032185;28;20188;-78
2021/10/31 06:52:26;;;;;;;6.03;5.43;;;12.10;99.90;;;;;;5032771;28;20684;-78
2021/10/31 06:54:52;;;;;;;5.97;5.38;;;12.00;99.90;;;;;;5032428;28;20172;-77
2021/10/31 06:57:18;;;;;;;7.95;6.60;;;12.00;99.90;;;;;;5032342;28;20160;-78
2021/10/31 06:59:44;;;;;;;5.10;4.55;;;12.20;99.90;;;;;;5032658;28;20206;-79
2021/10/31 07:02:09;;;;;;;7.93;4.97;;;12.20;99.90;;;;;;5032378;28;20168;-78
2021/10/31 07:04:35;;;;;;;7.38;5.35;;;12.30;99.90;;;;;;5031918;28;20206;-77
2021/10/31 07:07:01;;;;;;;6.25;5.05;;;12.20;99.90;;;;;;5031982;28;20691;-77
2021/10/31 07:09:27;;;;;;;9.15;5.47;;;12.10;99.90;;;;;;5031943;28;20199;-78
2021/10/31 07:11:53;;;;;;;6.43;5.65;;;12.10;99.90;;;;;;5032291;28;20168;-78
2021/10/31 07:14:19;;;;;;;8.70;5.22;;;12.20;99.90;;;;;;5031927;28;20168;-77
2021/10/31 07:16:45;;;;;;;12.98;5.28;;;12.40;99.90;;;;;;5031817;28;20533;-77
2021/10/31 07:19:10;;;;;;;5.22;4.65;;;12.40;99.90;;;;;;5032080;28;20678;-78
2021/10/31 07:21:37;;;;;;;5.25;4.22;;;12.50;99.90;;;;;;5032093;28;20164;-78
2021/10/31 07:24:05;;;;;;;8.35;3.67;;;12.60;99.90;;;;;;5031862;28;20229;-77
2021/10/31 07:26:30;;;;;;;5.22;4.45;;;12.60;99.90;;;;;;5031604;28;20211;-78
2021/10/31 07:28:57;;;;;;;7.18;3.85;;;12.50;99.90;;;;;;5032002;28;20194;-80
2021/10/31 07:31:24;;;;;;;5.10;4.45;;;12.40;99.90;;;;;;5032246;28;20167;-79
2021/10/31 07:33:50;;;;;;;4.07;3.78;;;12.50;99.90;;;;;;5032067;28;20195;-77
2021/10/31 07:36:15;;;;;;;4.03;3.58;;;12.50;99.90;;;;;;5032001;28;20172;-81
2021/10/31 07:38:42;;;;;;;4.75;3.00;;;12.70;99.90;;;;;;5031762;28;20190;-79
2021/10/31 07:41:09;;;;;;;5.78;3.88;;;12.80;99.90;;;;;;5031639;28;20167;-79
2021/10/31 07:43:34;;;;;;;3.30;3.00;;;12.90;99.90;;;;;;5031610;28;20168;-77
2021/10/31 07:46:00;;;;;;;2.75;2.55;;;13.00;99.90;;;;;;5031675;28;20214;-77
2021/10/31 07:48:26;;;;;;;2.83;2.63;;;13.00;99.90;;;;;;5031469;28;20171;-77
2021/10/31 07:50:51;;;;;;;6.50;2.90;;;12.90;99.90;;;;;;5031768;28;20164;-77
2021/10/31 07:53:17;;;;;;;3.53;2.67;;;12.90;99.90;;;;;;5031834;28;20172;-80
2021/10/31 07:55:48;;;;;;;2.65;2.45;;;13.10;99.90;;;;;;5032097;28;20176;-78
2021/10/31 07:58:16;;;;;;;3.28;2.08;;;13.20;99.90;;;;;;5031747;28;20164;-79
2021/10/31 08:00:42;;;;;;;4.72;2.10;;;13.20;99.90;;;;;;5032856;28;20172;-79
2021/10/31 08:03:07;;;;;;;3.22;2.78;;;13.00;99.90;;;;;;5035146;28;20568;-79
2021/10/31 08:05:33;;;;;;;4.30;3.10;;;13.00;99.90;;;;;;5034447;28;20848;-77
2021/10/31 08:07:59;;;;;;;3.50;3.20;;;12.90;99.90;;;;;;5034508;28;20210;-77
2021/10/31 08:10:25;;;;;;;8.73;3.05;;;12.90;99.90;;;;;;5034822;28;20193;-77
2021/10/31 08:12:51;;;;;;;9.07;3.15;;;12.90;99.90;;;;;;5035257;28;20172;-78
2021/10/31 08:15:17;;;;;;;2.92;2.47;;;12.90;99.90;;;;;;5035417;28;20222;-77
2021/10/31 08:17:42;;;;;;;4.70;2.13;;;13.00;99.90;;;;;;5035427;28;20168;-77
2021/10/31 08:20:09;;;;;;;7.68;2.42;;;13.10;99.90;;;;;;5035241;28;20206;-77
2021/10/31 08:22:34;;;;;;;2.17;1.98;;;13.10;99.90;;;;;;5035461;28;20561;-78
2021/10/31 08:25:01;;;;;;;5.85;2.75;;;13.20;99.90;;;;;;5035007;28;20180;-78
2021/10/31 08:27:28;;;;;;;2.80;2.03;;;13.40;99.90;;;;;;5035177;28;20572;-77
2021/10/31 08:29:53;;;;;;;3.40;2.55;;;13.60;99.90;;;;;;5035128;28;20176;-77
2021/10/31 08:32:22;;;;;;;2.83;1.90;;;13.70;99.90;;;;;;5034386;28;20179;-77
2021/10/31 08:34:48;;;;;;;2.22;1.60;;;13.80;99.90;;;;;;5035227;28;20183;-77
2021/10/31 08:37:14;;;;;;;3.53;1.75;;;13.90;99.90;;;;;;5034971;28;20168;-80
2021/10/31 08:39:40;;;;;;;1.75;1.65;;;13.70;99.90;;;;;;5034782;28;20241;-77
2021/10/31 08:42:06;;;;;;;4.40;1.83;;;13.80;99.90;;;;;;5035240;28;20172;-77
2021/10/31 08:44:36;;;;;;;2.88;1.77;;;13.70;99.90;;;;;;5035115;28;20199;-78
2021/10/31 08:47:02;;;;;;;3.38;1.90;;;13.60;99.90;;;;;;5034817;28;20196;-77
2021/10/31 08:49:27;;;;;;;4.65;2.17;;;13.70;99.90;;;;;;5034471;28;20194;-80
2021/10/31 08:51:53;;;;;;;1.95;1.70;;;13.90;99.90;;;;;;5035029;28;20172;-85
2021/10/31 08:54:19;;;;;;;2.65;1.92;;;13.90;99.90;;;;;;5034830;28;20164;-77
2021/10/31 08:56:45;;;;;;;2.60;1.70;;;14.00;99.90;;;;;;5033519;28;20556;-77
2021/10/31 08:59:10;;;;;;;5.07;1.65;;;13.90;99.90;;;;;;5034957;28;20176;-79
2021/10/31 09:01:37;;;;;;;2.47;1.75;;;14.00;99.90;;;;;;5033047;28;20584;-77
2021/10/31 09:04:02;;;;;;;2.00;1.58;;;14.10;99.90;;;;;;5034594;28;20633;-78
2021/10/31 09:06:28;;;;;;;3.15;2.03;;;14.10;99.90;;;;;;5035453;28;20215;-79
2021/10/31 09:08:55;;;;;;;3.53;1.98;;;14.20;99.90;;;;;;5034492;28;20212;-78
2021/10/31 09:11:20;;;;;;;2.67;1.80;;;14.30;99.90;;;;;;5034153;28;20167;-78
2021/10/31 09:13:50;;;;;;;3.70;1.70;;;14.20;99.90;;;;;;5034369;28;20172;-77
2021/10/31 09:16:16;;;;;;;8.45;1.90;;;14.20;99.90;;;;;;5034464;28;20178;-78
2021/10/31 09:18:42;;;;;;;6.25;1.92;;;14.30;99.90;;;;;;5034001;28;20275;-77
2021/10/31 09:21:08;;;;;;;2.25;1.65;;;14.40;99.90;;;;;;5034240;28;20260;-77
2021/10/31 09:23:34;;;;;;;2.95;1.42;;;14.70;99.90;;;;;;5034316;28;20510;-77
2021/10/31 09:26:00;;;;;;;2.95;1.75;;;14.80;99.90;;;;;;5034291;28;20230;-77
2021/10/31 09:28:27;;;;;;;2.40;1.55;;;14.90;99.90;;;;;;5034198;28;20178;-77
2021/10/31 09:30:52;;;;;;;1.85;1.27;;;15.10;99.90;;;;;;5033881;28;20166;-78
2021/10/31 09:33:18;;;;;;;1.42;1.33;;;15.20;99.90;;;;;;5033803;28;20187;-82
2021/10/31 09:35:49;;;;;;;2.33;1.40;;;15.30;99.90;;;;;;5031440;28;20228;-79
2021/10/31 09:38:19;;;;;;;1.83;0.98;;;15.50;99.90;;;;;;5033816;28;20160;-79
2021/10/31 09:40:46;;;;;;;2.95;1.20;;;15.60;99.90;;;;;;5031607;28;20164;-82
2021/10/31 09:43:12;;;;;;;1.80;1.23;;;15.60;99.90;;;;;;5033244;28;20214;-79
2021/10/31 09:45:38;;;;;;;4.95;1.77;;;15.50;99.90;;;;;;5033447;28;20227;-78
2021/10/31 09:48:10;;;;;;;4.72;0.98;;;15.70;99.90;;;;;;5033247;28;20164;-78
2021/10/31 09:50:42;;;;;;;1.98;1.08;;;15.80;99.90;;;;;;5033235;28;20183;-82
2021/10/31 09:53:08;;;;;;;4.40;1.38;;;15.90;99.90;;;;;;5033428;28;20160;-78
2021/10/31 09:55:35;;;;;;;2.67;1.25;;;16.00;99.90;;;;;;5032757;28;20171;-79
2021/10/31 09:58:04;;;;;;;7.50;1.00;;;16.20;99.90;;;;;;5028278;28;20262;-80
2021/10/31 10:00:43;;;;;;;2.92;1.23;;;16.40;99.90;;;;;;5032461;28;20184;-78
2021/10/31 10:06:19;;;;;;;3.08;1.25;;;16.60;99.90;;;;;;5031272;28;20671;-78
2021/10/31 10:09:07;;;;;;;1.23;0.95;;;16.80;99.90;;;;;;5032967;28;20184;-79
2021/10/31 10:11:38;;;;;;;2.13;1.10;;;16.70;99.90;;;;;;5029739;28;20176;-81
2021/10/31 10:14:23;;;;;;;1.42;1.00;;;16.50;99.90;;;;;;5031097;28;20262;-77
2021/10/31 10:16:49;;;;;;;1.80;0.95;;;16.40;99.90;;;;;;5031997;28;20167;-78
2021/10/31 10:19:23;;;;;;;1.75;1.20;;;16.30;99.90;;;;;;5031430;28;20191;-79
2021/10/31 10:22:11;;;;;;;11.93;1.15;;;16.40;99.90;;;;;;5031277;28;20538;-79
2021/10/31 10:24:51;;;;;;;2.05;1.00;;;16.50;99.90;;;;;;5025166;28;20171;-81
2021/10/31 10:27:18;;;;;;;1.65;1.27;;;16.60;99.90;;;;;;5032671;28;20172;-78
2021/10/31 10:29:44;;;;;;;2.60;1.20;;;16.50;99.90;;;;;;5032466;28;20219;-77
2021/10/31 10:32:12;;;;;;;10.65;1.38;;;16.40;99.90;;;;;;5031588;28;20208;-78
2021/10/31 10:34:47;;;;;;;2.13;1.08;;;16.30;99.90;;;;;;5032054;28;20166;-77
2021/10/31 10:37:18;;;;;;;6.22;1.17;;;16.20;99.90;;;;;;5032148;28;20179;-79
2021/10/31 10:39:58;;;;;;;1.33;1.00;;;16.00;99.90;;;;;;5032100;28;20560;-78
2021/10/31 10:42:27;;;;;;;5.78;1.13;;;16.00;99.90;;;;;;5032223;28;20571;-77
2021/10/31 10:44:57;;;;;;;5.60;1.10;;;16.30;99.90;;;;;;5032077;28;20172;-77
2021/10/31 10:47:24;;;;;;;2.78;1.00;;;16.30;99.90;;;;;;5032317;28;20171;-77
2021/10/31 10:49:52;;;;;;;1.52;1.17;;;16.20;99.90;;;;;;5032547;28;20184;-77
2021/10/31 10:52:30;;;;;;;5.47;1.10;;;16.30;99.90;;;;;;5032147;28;20625;-77
2021/10/31 10:55:03;;;;;;;2.60;1.25;;;16.30;99.90;;;;;;5031941;28;20499;-77
2021/10/31 10:57:33;;;;;;;2.65;1.40;;;16.30;99.90;;;;;;5032041;28;20624;-76
2021/10/31 11:00:19;;;;;;;1.10;1.00;;;16.30;99.90;;;;;;5030755;28;20195;-77
2021/10/31 11:03:00;;;;;;;2.80;1.13;;;16.50;99.90;;;;;;5030203;28;20176;-77
2021/10/31 11:05:28;;;;;;;5.25;1.13;;;16.60;99.90;;;;;;5031718;28;20199;-77
2021/10/31 11:07:54;;;;;;;1.52;0.98;;;16.60;99.90;;;;;;5032022;28;20178;-77
2021/10/31 11:10:25;;;;;;;2.80;1.42;;;16.50;99.90;;;;;;5031865;28;20530;-77
2021/10/31 11:12:59;;;;;;;4.07;1.55;;;16.60;99.90;;;;;;5031860;28;20168;-78
2021/10/31 11:15:30;;;;;;;3.38;1.52;;;16.80;99.90;;;;;;5030971;28;20174;-78
2021/10/31 11:18:01;;;;;;;3.38;1.30;;;16.90;99.90;;;;;;5030818;28;20171;-78
2021/10/31 11:20:32;;;;;;;2.33;1.33;;;17.00;99.90;;;;;;5031478;28;20183;-77
2021/10/31 11:23:02;;;;;;;7.72;1.50;;;17.10;99.90;;;;;;5032060;28;20172;-77
2021/10/31 11:25:30;;;;;;;7.53;2.25;;;17.00;99.90;;;;;;5031780;28;20249;-78
2021/10/31 11:27:58;;;;;;;16.67;2.08;;;17.10;99.90;;;;;;5031960;28;20168;-77
2021/10/31 11:30:25;;;;;;;8.02;2.30;;;17.20;99.90;;;;;;5031467;28;20279;-76
2021/10/31 11:32:52;;;;;;;4.68;1.33;;;17.50;99.90;;;;;;5031683;28;20203;-76
2021/10/31 11:35:19;;;;;;;5.65;1.48;;;17.50;99.90;;;;;;5034926;28;20160;-78
2021/10/31 11:37:56;;;;;;;2.00;0.88;;;17.60;99.90;;;;;;5035733;28;20262;-79
2021/10/31 11:40:41;;;;;;;5.63;1.55;;;17.50;99.90;;;;;;5035946;28;20179;-77
2021/10/31 11:43:26;;;;;;;2.00;1.20;;;17.60;99.90;;;;;;5033747;28;20225;-76
2021/10/31 11:45:54;;;;;;;6.22;1.70;;;17.60;99.90;;;;;;5035766;28;20230;-79
2021/10/31 11:48:23;;;;;;;2.42;1.38;;;17.40;99.90;;;;;;5035771;28;20205;-79
2021/10/31 11:51:04;;;;;;;3.30;0.88;;;17.20;99.90;;;;;;5035737;28;20168;-77
2021/10/31 11:53:33;;;;;;;3.05;1.08;;;17.40;99.90;;;;;;5035901;28;20258;-77
2021/10/31 11:56:03;;;;;;;2.15;0.90;;;17.40;99.90;;;;;;5035750;28;20156;-77
2021/10/31 11:58:32;;;;;;;6.93;1.38;;;17.50;99.90;;;;;;5035563;28;20715;-79
2021/10/31 12:01:01;;;;;;;4.47;1.42;;;17.70;99.90;;;;;;5036471;28;20262;-79
2021/10/31 12:03:46;;;;;;;4.45;1.30;;;17.80;99.90;;;;;;5035297;28;20164;-79
2021/10/31 12:06:14;;;;;;;2.67;1.20;;;17.80;99.90;;;;;;5035211;28;20207;-78
2021/10/31 12:08:54;;;;;;;3.72;1.25;;;17.80;99.90;;;;;;5035612;28;20257;-78
2021/10/31 12:11:29;;;;;;;0.85;0.80;;;17.90;99.90;;;;;;5035979;28;20179;-79
2021/10/31 12:14:00;;;;;;;2.70;1.15;;;17.80;99.90;;;;;;5034565;28;20505;-85
2021/10/31 12:16:27;;;;;;;2.40;1.08;;;17.80;99.90;;;;;;5036486;28;20192;-85
2021/10/31 12:19:07;;;;;;;1.23;0.98;;;17.90;99.90;;;;;;5036950;28;20213;-83
2021/10/31 12:21:35;;;;;;;8.63;1.30;;;18.00;99.90;;;;;;5036094;28;20171;-82
2021/10/31 12:24:00;;;;;;;1.55;1.17;;;18.00;99.90;;;;;;5035074;28;20172;-84
2021/10/31 12:26:48;;;;;;;0.90;0.85;;;17.90;99.90;;;;;;5036747;28;20206;-80
2021/10/31 12:29:16;;;;;;;2.58;1.65;;;17.90;99.90;;;;;;5036401;28;20735;-84
2021/10/31 12:32:01;;;;;;;1.48;1.00;;;17.80;99.90;;;;;;5037181;28;20203;-82
2021/10/31 12:34:33;;;;;;;2.97;0.82;;;17.90;99.90;;;;;;5036728;28;20176;-86
2021/10/31 12:37:00;;;;;;;1.30;1.20;;;17.90;99.90;;;;;;5036442;28;20634;-84
2021/10/31 12:39:26;;;;;;;1.67;1.48;;;17.90;99.90;;;;;;5034844;28;20188;-78
2021/10/31 12:42:11;;;;;;;1.75;1.00;;;17.80;99.90;;;;;;5035842;28;20262;-81
2021/10/31 12:44:39;;;;;;;6.85;1.27;;;17.90;99.90;;;;;;5035781;28;20579;-82
2021/10/31 12:47:10;;;;;;;6.18;1.27;;;17.80;99.90;;;;;;5034932;28;20204;-82
2021/10/31 12:49:36;;;;;;;3.22;1.10;;;18.00;99.90;;;;;;5036009;28;20691;-85
2021/10/31 12:52:05;;;;;;;4.65;1.10;;;18.00;99.90;;;;;;5036041;28;20168;-88
2021/10/31 12:54:36;;;;;;;0.73;0.73;;;18.00;99.90;;;;;;5035843;28;20167;-86
2021/10/31 12:57:10;;;;;;;6.50;1.10;;;18.10;99.90;;;;;;5036302;28;20172;-78